sensor_id;sensor_type;location;lat;lon;timestamp;pressure;altitude;pressure_sealevel;temperature;humidity
62710;BME280;48770;51.624;5.886;2022-07-11T00:02:15;102281.06;;;23.90;42.80
62710;BME280;48770;51.624;5.886;2022-07-11T00:04:41;102284.69;;;23.91;42.80
62710;BME280;48770;51.624;5.886;2022-07-11T00:07:10;102275.00;;;23.88;42.76
62710;BME280;48770;51.624;5.886;2022-07-11T00:09:36;102271.75;;;23.86;42.88
62710;BME280;48770;51.624;5.886;2022-07-11T00:12:02;102270.94;;;23.86;42.73
62710;BME280;48770;51.624;5.886;2022-07-11T00:14:28;102270.09;;;23.85;43.19
62710;BME280;48770;51.624;5.886;2022-07-11T00:16:54;102274.88;;;23.85;42.81
62710;BME280;48770;51.624;5.886;2022-07-11T00:19:20;102262.06;;;23.84;43.04
62710;BME280;48770;51.624;5.886;2022-07-11T00:21:46;102264.03;;;23.83;43.13
62710;BME280;48770;51.624;5.886;2022-07-11T00:24:12;102263.22;;;23.83;43.42
62710;BME280;48770;51.624;5.886;2022-07-11T00:26:37;102263.56;;;23.81;42.88
62710;BME280;48770;51.624;5.886;2022-07-11T00:29:04;102260.78;;;23.81;43.07
62710;BME280;48770;51.624;5.886;2022-07-11T00:31:30;102261.13;;;23.80;42.77
62710;BME280;48770;51.624;5.886;2022-07-11T00:33:56;102265.88;;;23.79;42.81
62710;BME280;48770;51.624;5.886;2022-07-11T00:36:21;102255.88;;;23.78;42.84
62710;BME280;48770;51.624;5.886;2022-07-11T00:38:47;102255.06;;;23.78;43.01
62710;BME280;48770;51.624;5.886;2022-07-11T00:41:13;102256.56;;;23.75;43.07
62710;BME280;48770;51.624;5.886;2022-07-11T00:43:39;102258.53;;;23.75;43.22
62710;BME280;48770;51.624;5.886;2022-07-11T00:46:06;102253.75;;;23.75;42.99
62710;BME280;48770;51.624;5.886;2022-07-11T00:48:32;102254.91;;;23.74;42.79
62710;BME280;48770;51.624;5.886;2022-07-11T00:50:58;102254.09;;;23.74;42.93
62710;BME280;48770;51.624;5.886;2022-07-11T00:53:24;102252.47;;;23.73;42.81
62710;BME280;48770;51.624;5.886;2022-07-11T00:55:51;102257.22;;;23.72;42.97
62710;BME280;48770;51.624;5.886;2022-07-11T00:58:21;102255.94;;;23.70;43.18
62710;BME280;48770;51.624;5.886;2022-07-11T01:00:47;102255.94;;;23.70;43.22
62710;BME280;48770;51.624;5.886;2022-07-11T01:03:13;102261.53;;;23.70;42.85
62710;BME280;48770;51.624;5.886;2022-07-11T01:05:38;102249.03;;;23.67;43.04
62710;BME280;48770;51.624;5.886;2022-07-11T01:08:04;102259.38;;;23.66;43.35
62710;BME280;48770;51.624;5.886;2022-07-11T01:10:31;102251.00;;;23.66;43.30
62710;BME280;48770;51.624;5.886;2022-07-11T01:12:56;102249.38;;;23.65;43.05
62710;BME280;48770;51.624;5.886;2022-07-11T01:15:22;102250.53;;;23.64;42.80
62710;BME280;48770;51.624;5.886;2022-07-11T01:17:47;102252.84;;;23.62;43.15
62710;BME280;48770;51.624;5.886;2022-07-11T01:20:12;102252.00;;;23.62;43.05
62710;BME280;48770;51.624;5.886;2022-07-11T01:22:46;102245.63;;;23.61;43.08
62710;BME280;48770;51.624;5.886;2022-07-11T01:25:15;102246.44;;;23.62;42.95
62710;BME280;48770;51.624;5.886;2022-07-11T01:27:58;102247.09;;;23.59;43.46
62710;BME280;48770;51.624;5.886;2022-07-11T01:30:25;102240.72;;;23.58;43.15
62710;BME280;48770;51.624;5.886;2022-07-11T01:32:51;102235.13;;;23.58;43.27
62710;BME280;48770;51.624;5.886;2022-07-11T01:35:17;102233.50;;;23.57;43.33
62710;BME280;48770;51.624;5.886;2022-07-11T01:37:42;102241.88;;;23.57;43.64
62710;BME280;48770;51.624;5.886;2022-07-11T01:40:08;102229.38;;;23.55;43.21
62710;BME280;48770;51.624;5.886;2022-07-11T01:42:34;102235.78;;;23.55;43.21
62710;BME280;48770;51.624;5.886;2022-07-11T01:44:59;102234.97;;;23.55;43.53
62710;BME280;48770;51.624;5.886;2022-07-11T01:47:24;102230.88;;;23.52;43.37
62710;BME280;48770;51.624;5.886;2022-07-11T01:49:50;102230.88;;;23.52;43.55
62710;BME280;48770;51.624;5.886;2022-07-11T01:52:15;102237.59;;;23.51;43.29
62710;BME280;48770;51.624;5.886;2022-07-11T01:54:40;102240.41;;;23.51;43.32
62710;BME280;48770;51.624;5.886;2022-07-11T01:57:06;102242.38;;;23.51;43.30
62710;BME280;48770;51.624;5.886;2022-07-11T01:59:31;102238.75;;;23.50;43.24
62710;BME280;48770;51.624;5.886;2022-07-11T02:01:56;102239.91;;;23.49;43.35
62710;BME280;48770;51.624;5.886;2022-07-11T02:04:23;102239.91;;;23.49;43.11
62710;BME280;48770;51.624;5.886;2022-07-11T02:06:48;102243.88;;;23.48;43.53
62710;BME280;48770;51.624;5.886;2022-07-11T02:09:14;102247.00;;;23.47;43.54
62710;BME280;48770;51.624;5.886;2022-07-11T02:11:40;102247.81;;;23.47;43.54
62710;BME280;48770;51.624;5.886;2022-07-11T02:14:05;102248.97;;;23.46;43.67
62710;BME280;48770;51.624;5.886;2022-07-11T02:16:30;102240.94;;;23.45;43.40
62710;BME280;48770;51.624;5.886;2022-07-11T02:18:56;102237.31;;;23.44;43.71
62710;BME280;48770;51.624;5.886;2022-07-11T02:21:21;102250.47;;;23.44;43.74
62710;BME280;48770;51.624;5.886;2022-07-11T02:23:46;102249.66;;;23.43;43.27
62710;BME280;48770;51.624;5.886;2022-07-11T02:26:12;102252.44;;;23.43;43.92
62710;BME280;48770;51.624;5.886;2022-07-11T02:28:37;102254.41;;;23.43;43.57
62710;BME280;48770;51.624;5.886;2022-07-11T02:31:02;102248.84;;;23.43;43.58
62710;BME280;48770;51.624;5.886;2022-07-11T02:33:28;102246.34;;;23.41;43.49
62710;BME280;48770;51.624;5.886;2022-07-11T02:35:54;102245.53;;;23.41;43.62
62710;BME280;48770;51.624;5.886;2022-07-11T02:38:19;102243.91;;;23.39;43.42
62710;BME280;48770;51.624;5.886;2022-07-11T02:40:44;102243.06;;;23.39;43.51
62710;BME280;48770;51.624;5.886;2022-07-11T02:43:10;102243.91;;;23.39;43.70
62710;BME280;48770;51.624;5.886;2022-07-11T02:45:36;102235.03;;;23.37;43.52
62710;BME280;48770;51.624;5.886;2022-07-11T02:48:01;102240.63;;;23.37;43.94
62710;BME280;48770;51.624;5.886;2022-07-11T02:50:26;102233.41;;;23.36;43.47
62710;BME280;48770;51.624;5.886;2022-07-11T02:52:52;102229.78;;;23.36;43.63
62710;BME280;48770;51.624;5.886;2022-07-11T02:55:17;102228.16;;;23.35;43.45
62710;BME280;48770;51.624;5.886;2022-07-11T02:57:42;102232.59;;;23.36;43.77
62710;BME280;48770;51.624;5.886;2022-07-11T03:00:12;102234.91;;;23.34;43.71
62710;BME280;48770;51.624;5.886;2022-07-11T03:02:37;102230.13;;;23.34;43.59
62710;BME280;48770;51.624;5.886;2022-07-11T03:05:04;102239.66;;;23.33;43.93
62710;BME280;48770;51.624;5.886;2022-07-11T03:07:29;102233.25;;;23.33;43.52
62710;BME280;48770;51.624;5.886;2022-07-11T03:09:55;102235.22;;;23.32;43.87
62710;BME280;48770;51.624;5.886;2022-07-11T03:12:21;102234.41;;;23.32;43.63
62710;BME280;48770;51.624;5.886;2022-07-11T03:14:46;102240.34;;;23.30;43.67
62710;BME280;48770;51.624;5.886;2022-07-11T03:17:12;102238.69;;;23.29;43.64
62710;BME280;48770;51.624;5.886;2022-07-11T03:19:37;102241.50;;;23.29;44.05
62710;BME280;48770;51.624;5.886;2022-07-11T03:22:03;102235.91;;;23.29;43.63
62710;BME280;48770;51.624;5.886;2022-07-11T03:24:29;102239.03;;;23.28;43.81
62710;BME280;48770;51.624;5.886;2022-07-11T03:26:54;102241.81;;;23.28;43.87
62710;BME280;48770;51.624;5.886;2022-07-11T03:29:20;102245.78;;;23.27;44.08
62710;BME280;48770;51.624;5.886;2022-07-11T03:31:45;102241.00;;;23.27;44.29
62710;BME280;48770;51.624;5.886;2022-07-11T03:34:10;102248.91;;;23.25;43.76
62710;BME280;48770;51.624;5.886;2022-07-11T03:36:36;102243.66;;;23.24;43.73
62710;BME280;48770;51.624;5.886;2022-07-11T03:39:01;102243.66;;;23.24;44.06
62710;BME280;48770;51.624;5.886;2022-07-11T03:41:26;102243.66;;;23.24;44.22
62710;BME280;48770;51.624;5.886;2022-07-11T03:43:52;102247.59;;;23.23;43.86
62710;BME280;48770;51.624;5.886;2022-07-11T03:46:17;102251.22;;;23.23;44.16
62710;BME280;48770;51.624;5.886;2022-07-11T03:48:42;102249.56;;;23.22;44.00
62710;BME280;48770;51.624;5.886;2022-07-11T03:51:09;102254.34;;;23.22;44.04
62710;BME280;48770;51.624;5.886;2022-07-11T03:53:34;102253.53;;;23.21;44.23
62710;BME280;48770;51.624;5.886;2022-07-11T03:55:59;102249.09;;;23.20;43.93
62710;BME280;48770;51.624;5.886;2022-07-11T03:58:25;102246.63;;;23.19;43.82
62710;BME280;48770;51.624;5.886;2022-07-11T04:00:50;102251.06;;;23.20;44.04
62710;BME280;48770;51.624;5.886;2022-07-11T04:03:16;102249.44;;;23.19;43.97
62710;BME280;48770;51.624;5.886;2022-07-11T04:05:41;102249.44;;;23.19;44.21
62710;BME280;48770;51.624;5.886;2022-07-11T04:08:06;102245.00;;;23.18;44.34
62710;BME280;48770;51.624;5.886;2022-07-11T04:10:32;102246.97;;;23.17;44.07
62710;BME280;48770;51.624;5.886;2022-07-11T04:12:57;102246.16;;;23.17;44.14
62710;BME280;48770;51.624;5.886;2022-07-11T04:15:22;102248.13;;;23.16;44.14
62710;BME280;48770;51.624;5.886;2022-07-11T04:17:48;102248.13;;;23.16;44.07
62710;BME280;48770;51.624;5.886;2022-07-11T04:20:13;102247.28;;;23.16;44.60
62710;BME280;48770;51.624;5.886;2022-07-11T04:22:38;102248.44;;;23.15;44.19
62710;BME280;48770;51.624;5.886;2022-07-11T04:25:04;102245.66;;;23.15;43.99
62710;BME280;48770;51.624;5.886;2022-07-11T04:27:29;102254.34;;;23.13;44.34
62710;BME280;48770;51.624;5.886;2022-07-11T04:29:55;102247.94;;;23.13;44.07
62710;BME280;48770;51.624;5.886;2022-07-11T04:32:20;102252.72;;;23.12;44.48
62710;BME280;48770;51.624;5.886;2022-07-11T04:34:46;102247.94;;;23.13;44.42
62710;BME280;48770;51.624;5.886;2022-07-11T04:37:11;102250.75;;;23.13;44.46
62710;BME280;48770;51.624;5.886;2022-07-11T04:39:36;102251.91;;;23.12;44.48
62710;BME280;48770;51.624;5.886;2022-07-11T04:42:02;102251.91;;;23.12;44.38
62710;BME280;48770;51.624;5.886;2022-07-11T04:44:28;102251.91;;;23.12;44.08
62710;BME280;48770;51.624;5.886;2022-07-11T04:46:54;102257.47;;;23.12;44.36
62710;BME280;48770;51.624;5.886;2022-07-11T04:49:19;102257.81;;;23.10;44.18
62710;BME280;48770;51.624;5.886;2022-07-11T04:51:45;102259.78;;;23.10;44.17
62710;BME280;48770;51.624;5.886;2022-07-11T04:54:11;102263.41;;;23.10;44.12
62710;BME280;48770;51.624;5.886;2022-07-11T04:56:36;102269.31;;;23.08;44.06
62710;BME280;48770;51.624;5.886;2022-07-11T04:59:03;102263.72;;;23.08;44.24
62710;BME280;48770;51.624;5.886;2022-07-11T05:01:28;102268.50;;;23.08;44.30
62710;BME280;48770;51.624;5.886;2022-07-11T05:03:54;102270.47;;;23.07;44.32
62710;BME280;48770;51.624;5.886;2022-07-11T05:06:20;102271.63;;;23.06;44.62
62710;BME280;48770;51.624;5.886;2022-07-11T05:08:45;102275.22;;;23.07;44.65
62710;BME280;48770;51.624;5.886;2022-07-11T05:11:11;102273.59;;;23.06;44.65
62710;BME280;48770;51.624;5.886;2022-07-11T05:13:36;102275.56;;;23.05;44.50
62710;BME280;48770;51.624;5.886;2022-07-11T05:16:02;102283.94;;;23.05;44.76
62710;BME280;48770;51.624;5.886;2022-07-11T05:18:28;102275.88;;;23.04;44.42
62710;BME280;48770;51.624;5.886;2022-07-11T05:20:53;102286.22;;;23.03;44.64
62710;BME280;48770;51.624;5.886;2022-07-11T05:23:19;102271.47;;;23.03;44.60
62710;BME280;48770;51.624;5.886;2022-07-11T05:25:44;102284.59;;;23.02;44.68
62710;BME280;48770;51.624;5.886;2022-07-11T05:28:09;102285.41;;;23.03;44.92
62710;BME280;48770;51.624;5.886;2022-07-11T05:30:35;102276.56;;;23.01;44.74
62710;BME280;48770;51.624;5.886;2022-07-11T05:33:00;102288.53;;;23.01;44.32
62710;BME280;48770;51.624;5.886;2022-07-11T05:35:25;102292.16;;;23.02;44.74
62710;BME280;48770;51.624;5.886;2022-07-11T05:37:51;102285.75;;;23.01;44.59
62710;BME280;48770;51.624;5.886;2022-07-11T05:40:16;102290.50;;;23.01;45.00
62710;BME280;48770;51.624;5.886;2022-07-11T05:42:42;102298.06;;;23.00;44.92
62710;BME280;48770;51.624;5.886;2022-07-11T05:45:08;102285.25;;;22.99;45.06
62710;BME280;48770;51.624;5.886;2022-07-11T05:47:33;102294.44;;;23.00;44.95
62710;BME280;48770;51.624;5.886;2022-07-11T05:49:58;102302.00;;;22.99;44.81
62710;BME280;48770;51.624;5.886;2022-07-11T05:52:24;102294.78;;;22.98;44.97
62710;BME280;48770;51.624;5.886;2022-07-11T05:54:49;102299.22;;;22.99;44.72
62710;BME280;48770;51.624;5.886;2022-07-11T05:57:14;102295.94;;;22.97;44.84
62710;BME280;48770;51.624;5.886;2022-07-11T05:59:40;102301.50;;;22.97;44.78
62710;BME280;48770;51.624;5.886;2022-07-11T06:02:05;102307.09;;;22.97;44.93
62710;BME280;48770;51.624;5.886;2022-07-11T06:04:33;102309.88;;;22.97;45.02
62710;BME280;48770;51.624;5.886;2022-07-11T06:06:59;102302.34;;;22.98;44.68
62710;BME280;48770;51.624;5.886;2022-07-11T06:09:24;102311.03;;;22.96;45.22
62710;BME280;48770;51.624;5.886;2022-07-11T06:11:49;102311.03;;;22.96;45.28
62710;BME280;48770;51.624;5.886;2022-07-11T06:14:15;102316.94;;;22.95;44.79
62710;BME280;48770;51.624;5.886;2022-07-11T06:16:41;102322.19;;;22.96;44.95
62710;BME280;48770;51.624;5.886;2022-07-11T06:19:06;102319.75;;;22.95;45.14
62710;BME280;48770;51.624;5.886;2022-07-11T06:21:32;102313.34;;;22.94;45.29
62710;BME280;48770;51.624;5.886;2022-07-11T06:23:58;102316.94;;;22.95;45.41
62710;BME280;48770;51.624;5.886;2022-07-11T06:26:24;102314.97;;;22.95;44.98
62710;BME280;48770;51.624;5.886;2022-07-11T06:28:49;102314.50;;;22.93;45.19
62710;BME280;48770;51.624;5.886;2022-07-11T06:31:15;102313.34;;;22.94;45.10
62710;BME280;48770;51.624;5.886;2022-07-11T06:33:41;102314.50;;;22.93;45.08
62710;BME280;48770;51.624;5.886;2022-07-11T06:36:07;102320.06;;;22.93;45.29
62710;BME280;48770;51.624;5.886;2022-07-11T06:38:32;102316.47;;;22.93;45.28
62710;BME280;48770;51.624;5.886;2022-07-11T06:40:58;102320.06;;;22.93;45.33
62710;BME280;48770;51.624;5.886;2022-07-11T06:43:24;102315.97;;;22.91;45.58
62710;BME280;48770;51.624;5.886;2022-07-11T06:45:50;102320.06;;;22.93;45.38
62710;BME280;48770;51.624;5.886;2022-07-11T06:48:15;102315.97;;;22.91;45.26
62710;BME280;48770;51.624;5.886;2022-07-11T06:50:41;102320.75;;;22.90;45.16
62710;BME280;48770;51.624;5.886;2022-07-11T06:53:06;102319.88;;;22.90;45.30
62710;BME280;48770;51.624;5.886;2022-07-11T06:55:32;102315.16;;;22.90;45.25
62710;BME280;48770;51.624;5.886;2022-07-11T06:57:59;102314.00;;;22.91;45.25
62710;BME280;48770;51.624;5.886;2022-07-11T07:00:24;102315.16;;;22.90;45.44
62710;BME280;48770;51.624;5.886;2022-07-11T07:02:50;102312.38;;;22.90;45.36
62710;BME280;48770;51.624;5.886;2022-07-11T07:05:15;102314.31;;;22.90;45.76
62710;BME280;48770;51.624;5.886;2022-07-11T07:07:41;102310.69;;;22.89;45.77
62710;BME280;48770;51.624;5.886;2022-07-11T07:10:07;102306.28;;;22.88;45.78
62710;BME280;48770;51.624;5.886;2022-07-11T07:12:32;102309.06;;;22.88;45.27
62710;BME280;48770;51.624;5.886;2022-07-11T07:15:02;102311.03;;;22.88;45.51
62710;BME280;48770;51.624;5.886;2022-07-11T07:17:27;102307.44;;;22.87;45.28
62710;BME280;48770;51.624;5.886;2022-07-11T07:19:52;102318.59;;;22.87;45.84
62710;BME280;48770;51.624;5.886;2022-07-11T07:22:18;102313.00;;;22.87;45.93
62710;BME280;48770;51.624;5.886;2022-07-11T07:24:43;102314.16;;;22.86;45.69
62710;BME280;48770;51.624;5.886;2022-07-11T07:27:09;102306.59;;;22.87;45.60
62710;BME280;48770;51.624;5.886;2022-07-11T07:29:34;102313.34;;;22.86;46.16
62710;BME280;48770;51.624;5.886;2022-07-11T07:32:00;102305.78;;;22.86;45.67
62710;BME280;48770;51.624;5.886;2022-07-11T07:34:25;102307.75;;;22.86;45.73
62710;BME280;48770;51.624;5.886;2022-07-11T07:36:51;102303.00;;;22.86;46.11
62710;BME280;48770;51.624;5.886;2022-07-11T07:39:16;102301.38;;;22.85;45.99
62710;BME280;48770;51.624;5.886;2022-07-11T07:41:42;102295.78;;;22.85;45.99
62710;BME280;48770;51.624;5.886;2022-07-11T07:44:07;102303.34;;;22.85;46.04
62710;BME280;48770;51.624;5.886;2022-07-11T07:46:32;102298.56;;;22.85;46.18
62710;BME280;48770;51.624;5.886;2022-07-11T07:48:58;102296.94;;;22.84;45.90
62710;BME280;48770;51.624;5.886;2022-07-11T07:51:24;102301.38;;;22.85;46.22
62710;BME280;48770;51.624;5.886;2022-07-11T07:53:49;102308.09;;;22.84;46.24
62710;BME280;48770;51.624;5.886;2022-07-11T07:56:15;102308.09;;;22.84;46.01
62710;BME280;48770;51.624;5.886;2022-07-11T07:58:40;102310.88;;;22.84;46.36
62710;BME280;48770;51.624;5.886;2022-07-11T08:01:06;102310.06;;;22.84;46.40
62710;BME280;48770;51.624;5.886;2022-07-11T08:03:50;102317.59;;;22.83;45.95
62710;BME280;48770;51.624;5.886;2022-07-11T08:06:16;102314.81;;;22.83;46.32
62710;BME280;48770;51.624;5.886;2022-07-11T08:08:41;102320.41;;;22.83;46.26
62710;BME280;48770;51.624;5.886;2022-07-11T08:11:07;102318.44;;;22.84;46.04
62710;BME280;48770;51.624;5.886;2022-07-11T08:13:32;102315.63;;;22.84;46.08
62710;BME280;48770;51.624;5.886;2022-07-11T08:15:58;102321.22;;;22.84;45.92
62710;BME280;48770;51.624;5.886;2022-07-11T08:18:23;102320.41;;;22.83;46.39
62710;BME280;48770;51.624;5.886;2022-07-11T08:20:48;102328.75;;;22.83;46.34
62710;BME280;48770;51.624;5.886;2022-07-11T08:23:13;102330.41;;;22.84;46.51
62710;BME280;48770;51.624;5.886;2022-07-11T08:25:39;102324.81;;;22.84;46.45
62710;BME280;48770;51.624;5.886;2022-07-11T08:28:05;102330.41;;;22.84;46.13
62710;BME280;48770;51.624;5.886;2022-07-11T08:30:31;102330.41;;;22.84;46.18
62710;BME280;48770;51.624;5.886;2022-07-11T08:32:57;102338.78;;;22.84;46.20
62710;BME280;48770;51.624;5.886;2022-07-11T08:35:22;102333.19;;;22.84;46.54
62710;BME280;48770;51.624;5.886;2022-07-11T08:37:48;102323.19;;;22.83;46.54
62710;BME280;48770;51.624;5.886;2022-07-11T08:40:16;102332.38;;;22.84;46.50
62710;BME280;48770;51.624;5.886;2022-07-11T08:42:43;102317.59;;;22.83;46.50
62710;BME280;48770;51.624;5.886;2022-07-11T08:45:15;102326.78;;;22.84;46.38
62710;BME280;48770;51.624;5.886;2022-07-11T08:47:41;102326.78;;;22.84;46.56
62710;BME280;48770;51.624;5.886;2022-07-11T08:50:09;102330.41;;;22.84;46.35
62710;BME280;48770;51.624;5.886;2022-07-11T08:52:35;102327.63;;;22.84;46.71
62710;BME280;48770;51.624;5.886;2022-07-11T08:55:01;102335.97;;;22.84;46.89
62710;BME280;48770;51.624;5.886;2022-07-11T08:57:31;102331.56;;;22.83;46.85
62710;BME280;48770;51.624;5.886;2022-07-11T08:59:57;102332.38;;;22.84;46.33
62710;BME280;48770;51.624;5.886;2022-07-11T09:02:24;102332.03;;;22.85;46.45
62710;BME280;48770;51.624;5.886;2022-07-11T09:04:50;102327.63;;;22.84;46.49
62710;BME280;48770;51.624;5.886;2022-07-11T09:07:15;102325.97;;;22.83;46.51
62710;BME280;48770;51.624;5.886;2022-07-11T09:09:40;102328.75;;;22.83;46.79
62710;BME280;48770;51.624;5.886;2022-07-11T09:12:11;102328.75;;;22.83;46.57
62710;BME280;48770;51.624;5.886;2022-07-11T09:14:37;102329.59;;;22.84;46.81
62710;BME280;48770;51.624;5.886;2022-07-11T09:17:04;102327.63;;;22.84;46.38
62710;BME280;48770;51.624;5.886;2022-07-11T09:19:34;102324.00;;;22.84;46.87
62710;BME280;48770;51.624;5.886;2022-07-11T09:22:04;102335.50;;;22.82;46.70
62710;BME280;48770;51.624;5.886;2022-07-11T09:25:06;102330.53;;;22.79;46.67
62710;BME280;48770;51.624;5.886;2022-07-11T09:27:57;102329.41;;;22.80;46.83
62710;BME280;48770;51.624;5.886;2022-07-11T09:35:37;102329.09;;;22.82;46.97
62710;BME280;48770;51.624;5.886;2022-07-11T09:38:04;102329.91;;;22.82;46.50
62710;BME280;48770;51.624;5.886;2022-07-11T09:40:30;102336.31;;;22.83;46.58
62710;BME280;48770;51.624;5.886;2022-07-11T09:42:57;102325.97;;;22.83;46.81
62710;BME280;48770;51.624;5.886;2022-07-11T09:45:24;102320.88;;;22.85;46.59
62710;BME280;48770;51.624;5.886;2022-07-11T09:47:53;102324.00;;;22.84;46.52
62710;BME280;48770;51.624;5.886;2022-07-11T09:50:22;102312.03;;;22.83;47.08
62710;BME280;48770;51.624;5.886;2022-07-11T09:53:10;102308.75;;;22.81;46.89
62710;BME280;48770;51.624;5.886;2022-07-11T09:55:40;102320.41;;;22.83;46.69
62710;BME280;48770;51.624;5.886;2022-07-11T09:58:13;102325.97;;;22.83;46.78
62710;BME280;48770;51.624;5.886;2022-07-11T10:00:44;102324.81;;;22.84;46.69
62710;BME280;48770;51.624;5.886;2022-07-11T10:03:11;102322.84;;;22.85;46.57
62710;BME280;48770;51.624;5.886;2022-07-11T10:05:38;102319.25;;;22.84;46.95
62710;BME280;48770;51.624;5.886;2022-07-11T10:08:04;102325.31;;;22.86;47.19
62710;BME280;48770;51.624;5.886;2022-07-11T10:10:31;102330.88;;;22.86;46.75
62710;BME280;48770;51.624;5.886;2022-07-11T10:12:57;102329.25;;;22.85;47.10
62710;BME280;48770;51.624;5.886;2022-07-11T10:15:27;102326.94;;;22.87;46.86
62710;BME280;48770;51.624;5.886;2022-07-11T10:18:03;102329.25;;;22.85;46.91
62710;BME280;48770;51.624;5.886;2022-07-11T10:21:00;102328.75;;;22.83;46.91
62710;BME280;48770;51.624;5.886;2022-07-11T10:23:44;102337.13;;;22.83;46.77
62710;BME280;48770;51.624;5.886;2022-07-11T10:28:48;102332.84;;;22.86;47.21
62710;BME280;48770;51.624;5.886;2022-07-11T10:31:21;102330.88;;;22.86;46.88
62710;BME280;48770;51.624;5.886;2022-07-11T10:34:03;102329.25;;;22.85;47.16
62710;BME280;48770;51.624;5.886;2022-07-11T10:36:30;102334.50;;;22.87;47.28
62710;BME280;48770;51.624;5.886;2022-07-11T10:39:21;102330.06;;;22.86;46.93
62710;BME280;48770;51.624;5.886;2022-07-11T10:41:52;102330.88;;;22.86;47.07
62710;BME280;48770;51.624;5.886;2022-07-11T10:44:18;102331.38;;;22.88;47.38
62710;BME280;48770;51.624;5.886;2022-07-11T10:46:44;102336.13;;;22.88;47.57
62710;BME280;48770;51.624;5.886;2022-07-11T10:54:35;102346.47;;;22.87;47.51
62710;BME280;48770;51.624;5.886;2022-07-11T10:59:55;102347.28;;;22.88;47.31
62710;BME280;48770;51.624;5.886;2022-07-11T11:02:20;102342.19;;;22.90;47.11
62710;BME280;48770;51.624;5.886;2022-07-11T11:04:53;102342.19;;;22.90;47.39
62710;BME280;48770;51.624;5.886;2022-07-11T11:15:52;102336.63;;;22.90;47.42
62710;BME280;48770;51.624;5.886;2022-07-11T11:23:23;102348.78;;;22.94;47.67
62710;BME280;48770;51.624;5.886;2022-07-11T11:25:49;102346.47;;;22.96;47.62
62710;BME280;48770;51.624;5.886;2022-07-11T11:28:20;102336.13;;;22.96;47.40
62710;BME280;48770;51.624;5.886;2022-07-11T11:30:56;102346.16;;;22.97;47.47
62710;BME280;48770;51.624;5.886;2022-07-11T11:33:22;102342.53;;;22.97;47.40
62710;BME280;48770;51.624;5.886;2022-07-11T11:36:09;102340.09;;;22.95;47.40
62710;BME280;48770;51.624;5.886;2022-07-11T11:38:41;102337.78;;;22.97;47.65
62710;BME280;48770;51.624;5.886;2022-07-11T11:41:08;102341.06;;;22.99;47.60
62710;BME280;48770;51.624;5.886;2022-07-11T11:43:34;102336.28;;;23.00;47.77
62710;BME280;48770;51.624;5.886;2022-07-11T11:46:00;102334.31;;;23.00;47.66
62710;BME280;48770;51.624;5.886;2022-07-11T11:48:35;102325.63;;;23.02;47.61
62710;BME280;48770;51.624;5.886;2022-07-11T11:53:35;102330.88;;;23.03;47.41
62710;BME280;48770;51.624;5.886;2022-07-11T11:56:34;102331.53;;;23.00;47.65
62710;BME280;48770;51.624;5.886;2022-07-11T11:59:10;102323.66;;;23.02;47.45
62710;BME280;48770;51.624;5.886;2022-07-11T12:01:42;102328.06;;;23.03;47.84
62710;BME280;48770;51.624;5.886;2022-07-11T12:04:10;102326.09;;;23.04;47.68
62710;BME280;48770;51.624;5.886;2022-07-11T12:06:45;102333.81;;;23.07;47.79
62710;BME280;48770;51.624;5.886;2022-07-11T12:09:17;102328.22;;;23.07;47.74
62710;BME280;48770;51.624;5.886;2022-07-11T12:11:45;102329.06;;;23.07;47.96
62710;BME280;48770;51.624;5.886;2022-07-11T12:14:13;102335.13;;;23.10;47.45
62710;BME280;48770;51.624;5.886;2022-07-11T12:16:48;102335.13;;;23.10;47.50
62710;BME280;48770;51.624;5.886;2022-07-11T12:19:20;102332.31;;;23.10;47.56
62710;BME280;48770;51.624;5.886;2022-07-11T12:21:49;102333.13;;;23.10;47.49
62710;BME280;48770;51.624;5.886;2022-07-11T12:24:19;102331.16;;;23.11;47.76
62710;BME280;48770;51.624;5.886;2022-07-11T12:26:46;102332.81;;;23.12;47.55
62710;BME280;48770;51.624;5.886;2022-07-11T12:29:17;102332.47;;;23.13;48.03
62710;BME280;48770;51.624;5.886;2022-07-11T12:31:58;102340.84;;;23.13;47.77
62710;BME280;48770;51.624;5.886;2022-07-11T12:34:41;102328.53;;;23.14;47.63
62710;BME280;48770;51.624;5.886;2022-07-11T12:37:12;102334.44;;;23.13;47.59
62710;BME280;48770;51.624;5.886;2022-07-11T12:39:55;102331.66;;;23.13;47.90
62710;BME280;48770;51.624;5.886;2022-07-11T12:42:35;102330.50;;;23.14;47.55
62710;BME280;48770;51.624;5.886;2022-07-11T12:45:09;102316.56;;;23.14;47.94
62710;BME280;48770;51.624;5.886;2022-07-11T12:47:39;102319.81;;;23.16;47.99
62710;BME280;48770;51.624;5.886;2022-07-11T12:50:18;102314.25;;;23.16;47.64
62710;BME280;48770;51.624;5.886;2022-07-11T12:52:46;102310.34;;;23.17;47.88
62710;BME280;48770;51.624;5.886;2022-07-11T12:55:26;102309.19;;;23.18;47.92
62710;BME280;48770;51.624;5.886;2022-07-11T12:58:12;102315.59;;;23.18;48.07
62710;BME280;48770;51.624;5.886;2022-07-11T13:00:44;102310.00;;;23.18;47.78
62710;BME280;48770;51.624;5.886;2022-07-11T13:03:28;102316.41;;;23.19;47.93
62710;BME280;48770;51.624;5.886;2022-07-11T13:05:56;102318.03;;;23.20;47.71
62710;BME280;48770;51.624;5.886;2022-07-11T13:08:25;102309.34;;;23.21;48.03
62710;BME280;48770;51.624;5.886;2022-07-11T13:11:17;102309.34;;;23.21;48.15
62710;BME280;48770;51.624;5.886;2022-07-11T13:13:44;102312.13;;;23.21;47.72
62710;BME280;48770;51.624;5.886;2022-07-11T13:16:12;102309.81;;;23.23;48.11
62710;BME280;48770;51.624;5.886;2022-07-11T13:18:37;102322.28;;;23.26;47.97
62710;BME280;48770;51.624;5.886;2022-07-11T13:21:03;102323.09;;;23.26;47.89
62710;BME280;48770;51.624;5.886;2022-07-11T13:23:30;102321.59;;;23.29;47.56
62710;BME280;48770;51.624;5.886;2022-07-11T13:25:56;102318.81;;;23.29;47.85